sensor_id;sensor_type;location;lat;lon;timestamp;temperature;humidity
26479;DHT22;14163;-26.142;27.992;2024-02-04T00:11:49;21.10;99.90
26479;DHT22;14163;-26.142;27.992;2024-02-04T00:14:18;21.30;99.90
26479;DHT22;14163;-26.142;27.992;2024-02-04T00:16:47;22.00;99.90
26479;DHT22;14163;-26.142;27.992;2024-02-04T00:19:16;22.70;99.90
26479;DHT22;14163;-26.142;27.992;2024-02-04T00:21:45;23.50;99.90
26479;DHT22;14163;-26.142;27.992;2024-02-04T00:24:14;24.10;99.90
26479;DHT22;14163;-26.142;27.992;2024-02-04T00:26:45;24.40;99.90
26479;DHT22;14163;-26.142;27.992;2024-02-04T00:29:16;24.60;99.90
26479;DHT22;14163;-26.142;27.992;2024-02-04T00:31:45;24.80;99.90
26479;DHT22;14163;-26.142;27.992;2024-02-04T00:34:14;24.80;99.90
26479;DHT22;14163;-26.142;27.992;2024-02-04T00:36:43;24.80;99.90
26479;DHT22;14163;-26.142;27.992;2024-02-04T00:39:13;24.70;99.90
26479;DHT22;14163;-26.142;27.992;2024-02-04T00:41:42;24.60;99.90
26479;DHT22;14163;-26.142;27.992;2024-02-04T00:44:11;24.70;99.90
26479;DHT22;14163;-26.142;27.992;2024-02-04T00:46:41;24.60;99.90
26479;DHT22;14163;-26.142;27.992;2024-02-04T00:49:11;24.60;99.90
26479;DHT22;14163;-26.142;27.992;2024-02-04T00:51:40;24.40;99.90
26479;DHT22;14163;-26.142;27.992;2024-02-04T00:54:09;24.30;99.90
26479;DHT22;14163;-26.142;27.992;2024-02-04T00:56:38;24.00;99.90
26479;DHT22;14163;-26.142;27.992;2024-02-04T00:59:07;23.70;99.90
26479;DHT22;14163;-26.142;27.992;2024-02-04T01:01:36;23.80;99.90
26479;DHT22;14163;-26.142;27.992;2024-02-04T01:04:07;23.90;99.90
26479;DHT22;14163;-26.142;27.992;2024-02-04T01:06:36;23.90;99.90
26479;DHT22;14163;-26.142;27.992;2024-02-04T01:09:05;23.90;99.90
26479;DHT22;14163;-26.142;27.992;2024-02-04T01:11:35;23.90;99.90
26479;DHT22;14163;-26.142;27.992;2024-02-04T01:14:04;24.00;99.90
26479;DHT22;14163;-26.142;27.992;2024-02-04T01:16:33;24.00;99.90
26479;DHT22;14163;-26.142;27.992;2024-02-04T01:19:02;24.00;99.90
26479;DHT22;14163;-26.142;27.992;2024-02-04T01:21:33;24.10;99.90
26479;DHT22;14163;-26.142;27.992;2024-02-04T01:24:02;24.30;99.90
26479;DHT22;14163;-26.142;27.992;2024-02-04T01:26:31;24.30;99.90
26479;DHT22;14163;-26.142;27.992;2024-02-04T01:29:00;24.20;99.90
26479;DHT22;14163;-26.142;27.992;2024-02-04T01:31:29;24.20;99.90
26479;DHT22;14163;-26.142;27.992;2024-02-04T01:33:58;24.10;99.90
26479;DHT22;14163;-26.142;27.992;2024-02-04T01:36:28;24.10;99.90
26479;DHT22;14163;-26.142;27.992;2024-02-04T01:38:58;24.20;99.90
26479;DHT22;14163;-26.142;27.992;2024-02-04T01:41:27;24.30;99.90
26479;DHT22;14163;-26.142;27.992;2024-02-04T01:43:56;24.30;99.90
26479;DHT22;14163;-26.142;27.992;2024-02-04T01:46:26;24.50;99.90
26479;DHT22;14163;-26.142;27.992;2024-02-04T01:48:55;24.60;99.90
26479;DHT22;14163;-26.142;27.992;2024-02-04T01:51:25;24.70;99.90
26479;DHT22;14163;-26.142;27.992;2024-02-04T01:53:54;24.70;99.90
26479;DHT22;14163;-26.142;27.992;2024-02-04T01:56:25;24.80;99.90
26479;DHT22;14163;-26.142;27.992;2024-02-04T01:58:54;24.70;99.90
26479;DHT22;14163;-26.142;27.992;2024-02-04T02:01:23;24.50;99.90
26479;DHT22;14163;-26.142;27.992;2024-02-04T02:03:53;24.50;99.90
26479;DHT22;14163;-26.142;27.992;2024-02-04T02:06:22;24.50;99.90
26479;DHT22;14163;-26.142;27.992;2024-02-04T02:08:53;24.40;99.90
26479;DHT22;14163;-26.142;27.992;2024-02-04T02:11:32;24.10;99.90
26479;DHT22;14163;-26.142;27.992;2024-02-04T02:14:04;24.20;99.90
26479;DHT22;14163;-26.142;27.992;2024-02-04T02:16:34;24.10;99.90
26479;DHT22;14163;-26.142;27.992;2024-02-04T02:19:12;24.10;99.90
26479;DHT22;14163;-26.142;27.992;2024-02-04T02:21:50;24.00;99.90
26479;DHT22;14163;-26.142;27.992;2024-02-04T02:24:33;24.10;99.90
26479;DHT22;14163;-26.142;27.992;2024-02-04T02:27:02;24.20;99.90
26479;DHT22;14163;-26.142;27.992;2024-02-04T02:29:32;24.20;99.90
26479;DHT22;14163;-26.142;27.992;2024-02-04T02:32:03;24.20;99.90
26479;DHT22;14163;-26.142;27.992;2024-02-04T02:34:32;24.20;99.90
26479;DHT22;14163;-26.142;27.992;2024-02-04T02:37:07;24.10;99.90
26479;DHT22;14163;-26.142;27.992;2024-02-04T02:39:42;24.10;99.90
26479;DHT22;14163;-26.142;27.992;2024-02-04T02:42:15;24.10;99.90
26479;DHT22;14163;-26.142;27.992;2024-02-04T02:44:46;24.10;99.90
26479;DHT22;14163;-26.142;27.992;2024-02-04T02:47:16;24.10;99.90
26479;DHT22;14163;-26.142;27.992;2024-02-04T02:49:46;24.00;99.90
26479;DHT22;14163;-26.142;27.992;2024-02-04T02:52:15;23.90;99.90
26479;DHT22;14163;-26.142;27.992;2024-02-04T02:54:46;23.80;99.90
26479;DHT22;14163;-26.142;27.992;2024-02-04T02:57:15;23.90;99.90
26479;DHT22;14163;-26.142;27.992;2024-02-04T02:59:44;23.90;99.90
26479;DHT22;14163;-26.142;27.992;2024-02-04T03:02:13;23.90;99.90
26479;DHT22;14163;-26.142;27.992;2024-02-04T03:04:42;23.90;99.90
26479;DHT22;14163;-26.142;27.992;2024-02-04T03:07:12;24.00;99.90
26479;DHT22;14163;-26.142;27.992;2024-02-04T03:09:41;24.10;99.90
26479;DHT22;14163;-26.142;27.992;2024-02-04T03:12:12;24.00;99.90
26479;DHT22;14163;-26.142;27.992;2024-02-04T03:14:41;23.80;99.90
26479;DHT22;14163;-26.142;27.992;2024-02-04T03:17:10;23.70;99.90
26479;DHT22;14163;-26.142;27.992;2024-02-04T03:19:40;23.70;99.90
26479;DHT22;14163;-26.142;27.992;2024-02-04T03:22:11;23.70;99.90
26479;DHT22;14163;-26.142;27.992;2024-02-04T03:24:40;23.70;99.90
26479;DHT22;14163;-26.142;27.992;2024-02-04T03:27:11;23.80;99.90
26479;DHT22;14163;-26.142;27.992;2024-02-04T03:29:40;23.70;99.90
26479;DHT22;14163;-26.142;27.992;2024-02-04T03:32:10;23.40;99.90
26479;DHT22;14163;-26.142;27.992;2024-02-04T03:34:41;23.40;99.90
26479;DHT22;14163;-26.142;27.992;2024-02-04T03:37:10;23.10;99.90
26479;DHT22;14163;-26.142;27.992;2024-02-04T03:39:39;22.80;99.90
26479;DHT22;14163;-26.142;27.992;2024-02-04T03:42:08;22.70;99.90
26479;DHT22;14163;-26.142;27.992;2024-02-04T03:44:39;23.00;99.90
26479;DHT22;14163;-26.142;27.992;2024-02-04T03:47:08;23.10;99.90
26479;DHT22;14163;-26.142;27.992;2024-02-04T03:49:38;23.20;99.90
26479;DHT22;14163;-26.142;27.992;2024-02-04T03:52:07;23.20;99.90
26479;DHT22;14163;-26.142;27.992;2024-02-04T03:54:36;23.20;99.90
26479;DHT22;14163;-26.142;27.992;2024-02-04T03:57:05;23.20;99.90
26479;DHT22;14163;-26.142;27.992;2024-02-04T03:59:34;23.20;99.90
26479;DHT22;14163;-26.142;27.992;2024-02-04T04:02:05;23.20;99.90
26479;DHT22;14163;-26.142;27.992;2024-02-04T04:04:35;23.20;99.90
26479;DHT22;14163;-26.142;27.992;2024-02-04T04:07:04;23.30;99.90
26479;DHT22;14163;-26.142;27.992;2024-02-04T04:09:33;23.40;99.90
26479;DHT22;14163;-26.142;27.992;2024-02-04T04:12:02;23.30;99.90
26479;DHT22;14163;-26.142;27.992;2024-02-04T04:14:32;23.30;99.90
26479;DHT22;14163;-26.142;27.992;2024-02-04T04:17:01;23.30;99.90
26479;DHT22;14163;-26.142;27.992;2024-02-04T04:19:32;23.40;99.90
26479;DHT22;14163;-26.142;27.992;2024-02-04T04:22:02;23.40;99.90
26479;DHT22;14163;-26.142;27.992;2024-02-04T04:24:32;23.40;99.90
26479;DHT22;14163;-26.142;27.992;2024-02-04T04:27:02;23.40;99.90
26479;DHT22;14163;-26.142;27.992;2024-02-04T04:29:31;23.50;99.90
26479;DHT22;14163;-26.142;27.992;2024-02-04T04:32:00;23.30;99.90
26479;DHT22;14163;-26.142;27.992;2024-02-04T04:34:31;23.00;99.90
26479;DHT22;14163;-26.142;27.992;2024-02-04T04:37:00;23.30;99.90
26479;DHT22;14163;-26.142;27.992;2024-02-04T04:39:29;23.40;99.90
26479;DHT22;14163;-26.142;27.992;2024-02-04T04:41:58;23.40;99.90
26479;DHT22;14163;-26.142;27.992;2024-02-04T04:44:28;23.50;99.90
26479;DHT22;14163;-26.142;27.992;2024-02-04T04:46:57;23.60;99.90
26479;DHT22;14163;-26.142;27.992;2024-02-04T04:49:26;23.60;99.90
26479;DHT22;14163;-26.142;27.992;2024-02-04T04:51:57;23.50;99.90
26479;DHT22;14163;-26.142;27.992;2024-02-04T04:54:28;23.50;99.90
26479;DHT22;14163;-26.142;27.992;2024-02-04T04:56:57;23.50;99.90
26479;DHT22;14163;-26.142;27.992;2024-02-04T04:59:26;23.50;99.90
26479;DHT22;14163;-26.142;27.992;2024-02-04T05:01:55;23.50;99.90
26479;DHT22;14163;-26.142;27.992;2024-02-04T05:04:24;23.40;99.90
26479;DHT22;14163;-26.142;27.992;2024-02-04T05:06:55;23.50;99.90
26479;DHT22;14163;-26.142;27.992;2024-02-04T05:09:24;23.40;99.90
26479;DHT22;14163;-26.142;27.992;2024-02-04T05:11:53;23.30;99.90
26479;DHT22;14163;-26.142;27.992;2024-02-04T05:14:22;23.30;99.90
26479;DHT22;14163;-26.142;27.992;2024-02-04T05:16:52;23.40;99.90
26479;DHT22;14163;-26.142;27.992;2024-02-04T05:19:21;23.50;99.90
26479;DHT22;14163;-26.142;27.992;2024-02-04T05:21:50;23.50;99.90
26479;DHT22;14163;-26.142;27.992;2024-02-04T05:24:21;23.30;99.90
26479;DHT22;14163;-26.142;27.992;2024-02-04T05:26:50;23.30;99.90
26479;DHT22;14163;-26.142;27.992;2024-02-04T05:29:19;23.20;99.90
26479;DHT22;14163;-26.142;27.992;2024-02-04T05:31:48;23.10;99.90
26479;DHT22;14163;-26.142;27.992;2024-02-04T05:34:18;23.20;99.90
26479;DHT22;14163;-26.142;27.992;2024-02-04T05:36:47;23.10;99.90
26479;DHT22;14163;-26.142;27.992;2024-02-04T05:39:17;23.20;99.90
26479;DHT22;14163;-26.142;27.992;2024-02-04T05:41:47;23.20;99.90
26479;DHT22;14163;-26.142;27.992;2024-02-04T05:44:17;23.30;99.90
26479;DHT22;14163;-26.142;27.992;2024-02-04T05:46:46;23.30;99.90
26479;DHT22;14163;-26.142;27.992;2024-02-04T05:49:15;23.30;99.90
26479;DHT22;14163;-26.142;27.992;2024-02-04T05:51:44;23.30;99.90
26479;DHT22;14163;-26.142;27.992;2024-02-04T05:54:14;23.20;99.90
26479;DHT22;14163;-26.142;27.992;2024-02-04T05:56:43;23.20;99.90
26479;DHT22;14163;-26.142;27.992;2024-02-04T05:59:14;23.20;99.90
26479;DHT22;14163;-26.142;27.992;2024-02-04T06:01:44;23.10;99.90
26479;DHT22;14163;-26.142;27.992;2024-02-04T06:04:13;23.30;99.90
26479;DHT22;14163;-26.142;27.992;2024-02-04T06:06:42;23.40;99.90
26479;DHT22;14163;-26.142;27.992;2024-02-04T06:09:11;23.40;99.90
26479;DHT22;14163;-26.142;27.992;2024-02-04T06:11:44;23.40;99.90
26479;DHT22;14163;-26.142;27.992;2024-02-04T06:14:15;23.60;99.90
26479;DHT22;14163;-26.142;27.992;2024-02-04T06:16:44;23.90;99.90
26479;DHT22;14163;-26.142;27.992;2024-02-04T06:19:14;24.00;99.90
26479;DHT22;14163;-26.142;27.992;2024-02-04T06:21:43;24.10;99.90
26479;DHT22;14163;-26.142;27.992;2024-02-04T06:24:12;24.00;99.90
26479;DHT22;14163;-26.142;27.992;2024-02-04T06:26:41;24.00;99.90
26479;DHT22;14163;-26.142;27.992;2024-02-04T06:29:11;24.20;99.90
26479;DHT22;14163;-26.142;27.992;2024-02-04T06:31:44;24.40;99.90
26479;DHT22;14163;-26.142;27.992;2024-02-04T06:34:14;24.30;99.90
26479;DHT22;14163;-26.142;27.992;2024-02-04T06:36:43;24.40;99.90
26479;DHT22;14163;-26.142;27.992;2024-02-04T06:39:13;24.40;99.90
26479;DHT22;14163;-26.142;27.992;2024-02-04T06:41:42;24.20;99.90
26479;DHT22;14163;-26.142;27.992;2024-02-04T06:44:12;24.30;99.90
26479;DHT22;14163;-26.142;27.992;2024-02-04T06:46:43;24.40;99.90
26479;DHT22;14163;-26.142;27.992;2024-02-04T06:49:13;24.50;99.90
26479;DHT22;14163;-26.142;27.992;2024-02-04T06:51:46;24.60;99.90
26479;DHT22;14163;-26.142;27.992;2024-02-04T06:54:15;24.70;99.90
26479;DHT22;14163;-26.142;27.992;2024-02-04T06:56:44;24.70;99.90
26479;DHT22;14163;-26.142;27.992;2024-02-04T06:59:14;24.80;99.90
26479;DHT22;14163;-26.142;27.992;2024-02-04T07:01:44;24.80;99.90
26479;DHT22;14163;-26.142;27.992;2024-02-04T07:04:14;24.60;99.90
26479;DHT22;14163;-26.142;27.992;2024-02-04T07:06:43;24.70;99.90
26479;DHT22;14163;-26.142;27.992;2024-02-04T07:09:12;24.80;99.90
26479;DHT22;14163;-26.142;27.992;2024-02-04T07:11:41;24.90;99.90
26479;DHT22;14163;-26.142;27.992;2024-02-04T07:14:10;24.90;99.90
26479;DHT22;14163;-26.142;27.992;2024-02-04T07:16:39;25.00;99.90
26479;DHT22;14163;-26.142;27.992;2024-02-04T07:19:11;25.00;99.90
26479;DHT22;14163;-26.142;27.992;2024-02-04T07:21:40;25.30;99.90
26479;DHT22;14163;-26.142;27.992;2024-02-04T07:24:09;25.50;99.90
26479;DHT22;14163;-26.142;27.992;2024-02-04T07:26:38;25.70;99.90
26479;DHT22;14163;-26.142;27.992;2024-02-04T07:29:07;25.60;99.90
26479;DHT22;14163;-26.142;27.992;2024-02-04T07:31:36;25.60;99.90
26479;DHT22;14163;-26.142;27.992;2024-02-04T07:34:05;25.70;99.90
26479;DHT22;14163;-26.142;27.992;2024-02-04T07:36:36;25.70;99.90
26479;DHT22;14163;-26.142;27.992;2024-02-04T07:39:05;25.80;99.90
26479;DHT22;14163;-26.142;27.992;2024-02-04T07:41:35;25.60;99.90
26479;DHT22;14163;-26.142;27.992;2024-02-04T07:44:04;25.60;99.90
26479;DHT22;14163;-26.142;27.992;2024-02-04T07:46:33;25.60;99.90
26479;DHT22;14163;-26.142;27.992;2024-02-04T07:49:03;25.60;99.90
26479;DHT22;14163;-26.142;27.992;2024-02-04T07:51:32;25.90;99.90
26479;DHT22;14163;-26.142;27.992;2024-02-04T07:54:04;25.90;99.90
26479;DHT22;14163;-26.142;27.992;2024-02-04T07:56:33;26.10;99.90
26479;DHT22;14163;-26.142;27.992;2024-02-04T07:59:02;26.30;99.90
26479;DHT22;14163;-26.142;27.992;2024-02-04T08:01:32;26.30;99.90
26479;DHT22;14163;-26.142;27.992;2024-02-04T08:04:01;26.30;99.90
26479;DHT22;14163;-26.142;27.992;2024-02-04T08:06:32;26.50;99.90
26479;DHT22;14163;-26.142;27.992;2024-02-04T08:09:03;26.40;99.90
26479;DHT22;14163;-26.142;27.992;2024-02-04T08:11:33;26.60;99.90
26479;DHT22;14163;-26.142;27.992;2024-02-04T08:14:02;26.60;99.90
26479;DHT22;14163;-26.142;27.992;2024-02-04T08:16:31;26.60;99.90
26479;DHT22;14163;-26.142;27.992;2024-02-04T08:19:01;26.50;99.90
26479;DHT22;14163;-26.142;27.992;2024-02-04T08:21:32;26.60;99.90
26479;DHT22;14163;-26.142;27.992;2024-02-04T08:24:03;26.60;99.90
26479;DHT22;14163;-26.142;27.992;2024-02-04T08:26:33;26.80;99.90
26479;DHT22;14163;-26.142;27.992;2024-02-04T08:29:02;26.80;99.90
26479;DHT22;14163;-26.142;27.992;2024-02-04T08:31:32;26.90;99.90
26479;DHT22;14163;-26.142;27.992;2024-02-04T08:34:02;26.90;99.90
26479;DHT22;14163;-26.142;27.992;2024-02-04T08:36:31;26.90;99.90
26479;DHT22;14163;-26.142;27.992;2024-02-04T08:39:00;27.10;99.90
26479;DHT22;14163;-26.142;27.992;2024-02-04T08:41:32;27.40;99.90
26479;DHT22;14163;-26.142;27.992;2024-02-04T08:44:01;27.60;99.90
26479;DHT22;14163;-26.142;27.992;2024-02-04T08:46:30;27.60;99.90
26479;DHT22;14163;-26.142;27.992;2024-02-04T08:48:59;27.70;99.90
26479;DHT22;14163;-26.142;27.992;2024-02-04T08:51:28;27.90;99.90
26479;DHT22;14163;-26.142;27.992;2024-02-04T08:53:57;27.80;99.90
26479;DHT22;14163;-26.142;27.992;2024-02-04T08:56:27;27.90;99.90
26479;DHT22;14163;-26.142;27.992;2024-02-04T08:58:57;27.90;99.90
26479;DHT22;14163;-26.142;27.992;2024-02-04T09:01:28;27.90;99.90
26479;DHT22;14163;-26.142;27.992;2024-02-04T09:03:57;28.00;99.90
26479;DHT22;14163;-26.142;27.992;2024-02-04T09:06:26;28.10;99.90
26479;DHT22;14163;-26.142;27.992;2024-02-04T09:08:56;28.20;99.90
26479;DHT22;14163;-26.142;27.992;2024-02-04T09:11:25;28.30;99.90
26479;DHT22;14163;-26.142;27.992;2024-02-04T09:13:54;28.40;99.90
26479;DHT22;14163;-26.142;27.992;2024-02-04T09:16:25;28.40;99.90
26479;DHT22;14163;-26.142;27.992;2024-02-04T09:18:54;28.50;99.90
26479;DHT22;14163;-26.142;27.992;2024-02-04T09:21:23;28.60;99.90
26479;DHT22;14163;-26.142;27.992;2024-02-04T09:23:52;28.70;99.90
26479;DHT22;14163;-26.142;27.992;2024-02-04T09:26:22;28.60;99.90
26479;DHT22;14163;-26.142;27.992;2024-02-04T09:28:52;28.70;99.90
26479;DHT22;14163;-26.142;27.992;2024-02-04T09:31:21;28.80;99.90
26479;DHT22;14163;-26.142;27.992;2024-02-04T09:33:52;28.70;99.90
26479;DHT22;14163;-26.142;27.992;2024-02-04T09:36:21;28.90;99.90
26479;DHT22;14163;-26.142;27.992;2024-02-04T09:38:50;28.80;99.90
26479;DHT22;14163;-26.142;27.992;2024-02-04T09:41:19;28.80;99.90
26479;DHT22;14163;-26.142;27.992;2024-02-04T09:43:50;28.80;99.90
26479;DHT22;14163;-26.142;27.992;2024-02-04T09:46:19;28.90;99.90
26479;DHT22;14163;-26.142;27.992;2024-02-04T09:48:51;28.90;99.90
26479;DHT22;14163;-26.142;27.992;2024-02-04T09:51:22;28.90;99.90
26479;DHT22;14163;-26.142;27.992;2024-02-04T09:53:53;28.90;99.90
26479;DHT22;14163;-26.142;27.992;2024-02-04T09:56:23;29.00;99.90
26479;DHT22;14163;-26.142;27.992;2024-02-04T09:58:54;29.10;99.90
26479;DHT22;14163;-26.142;27.992;2024-02-04T10:01:24;29.10;99.90
26479;DHT22;14163;-26.142;27.992;2024-02-04T10:03:55;29.00;99.90
26479;DHT22;14163;-26.142;27.992;2024-02-04T10:06:24;29.00;99.90
26479;DHT22;14163;-26.142;27.992;2024-02-04T10:08:53;28.90;99.90
26479;DHT22;14163;-26.142;27.992;2024-02-04T10:11:23;28.90;99.90
26479;DHT22;14163;-26.142;27.992;2024-02-04T10:13:52;29.00;99.90
26479;DHT22;14163;-26.142;27.992;2024-02-04T10:16:21;28.90;99.90
26479;DHT22;14163;-26.142;27.992;2024-02-04T10:18:51;28.90;99.90
26479;DHT22;14163;-26.142;27.992;2024-02-04T10:21:24;29.10;99.90
26479;DHT22;14163;-26.142;27.992;2024-02-04T10:23:54;29.00;99.90
26479;DHT22;14163;-26.142;27.992;2024-02-04T10:26:23;28.90;99.90
26479;DHT22;14163;-26.142;27.992;2024-02-04T10:28:59;28.90;99.90
26479;DHT22;14163;-26.142;27.992;2024-02-04T10:31:28;28.90;99.90
26479;DHT22;14163;-26.142;27.992;2024-02-04T10:33:57;29.00;99.90
26479;DHT22;14163;-26.142;27.992;2024-02-04T10:36:30;29.20;99.90
26479;DHT22;14163;-26.142;27.992;2024-02-04T10:39:00;29.20;99.90
26479;DHT22;14163;-26.142;27.992;2024-02-04T10:41:30;29.50;99.90
26479;DHT22;14163;-26.142;27.992;2024-02-04T10:44:03;29.50;99.90
26479;DHT22;14163;-26.142;27.992;2024-02-04T10:46:34;29.70;99.90
26479;DHT22;14163;-26.142;27.992;2024-02-04T10:49:07;29.80;99.90
26479;DHT22;14163;-26.142;27.992;2024-02-04T10:51:42;29.80;99.90
26479;DHT22;14163;-26.142;27.992;2024-02-04T10:54:12;29.90;99.90
26479;DHT22;14163;-26.142;27.992;2024-02-04T10:56:45;29.90;99.90
26479;DHT22;14163;-26.142;27.992;2024-02-04T10:59:16;29.90;99.90
26479;DHT22;14163;-26.142;27.992;2024-02-04T11:01:47;29.90;99.90
26479;DHT22;14163;-26.142;27.992;2024-02-04T11:04:17;30.00;99.90
26479;DHT22;14163;-26.142;27.992;2024-02-04T11:06:48;30.20;99.90
26479;DHT22;14163;-26.142;27.992;2024-02-04T11:09:19;30.30;99.90
26479;DHT22;14163;-26.142;27.992;2024-02-04T11:11:49;30.30;99.90
26479;DHT22;14163;-26.142;27.992;2024-02-04T11:14:20;30.20;99.90
26479;DHT22;14163;-26.142;27.992;2024-02-04T11:19:53;30.00;99.90
26479;DHT22;14163;-26.142;27.992;2024-02-04T11:22:47;30.00;99.90
26479;DHT22;14163;-26.142;27.992;2024-02-04T11:25:42;30.00;99.90
26479;DHT22;14163;-26.142;27.992;2024-02-04T11:28:12;30.10;99.90
26479;DHT22;14163;-26.142;27.992;2024-02-04T11:30:43;30.00;99.90
26479;DHT22;14163;-26.142;27.992;2024-02-04T11:33:17;30.00;99.90
26479;DHT22;14163;-26.142;27.992;2024-02-04T11:35:46;30.00;99.90
26479;DHT22;14163;-26.142;27.992;2024-02-04T11:38:20;30.00;99.90
26479;DHT22;14163;-26.142;27.992;2024-02-04T11:40:49;30.20;99.90
26479;DHT22;14163;-26.142;27.992;2024-02-04T11:43:23;30.30;99.90
26479;DHT22;14163;-26.142;27.992;2024-02-04T11:45:53;30.20;99.90
26479;DHT22;14163;-26.142;27.992;2024-02-04T11:48:29;30.00;99.90
26479;DHT22;14163;-26.142;27.992;2024-02-04T11:50:59;29.80;99.90
26479;DHT22;14163;-26.142;27.992;2024-02-04T11:53:30;29.80;99.90
26479;DHT22;14163;-26.142;27.992;2024-02-04T11:56:01;29.90;99.90
26479;DHT22;14163;-26.142;27.992;2024-02-04T11:58:31;30.00;99.90
26479;DHT22;14163;-26.142;27.992;2024-02-04T12:01:02;30.00;99.90
26479;DHT22;14163;-26.142;27.992;2024-02-04T12:03:32;30.10;99.90
26479;DHT22;14163;-26.142;27.992;2024-02-04T12:06:03;30.40;99.90
26479;DHT22;14163;-26.142;27.992;2024-02-04T12:08:35;30.60;99.90
26479;DHT22;14163;-26.142;27.992;2024-02-04T12:11:04;31.10;99.90
26479;DHT22;14163;-26.142;27.992;2024-02-04T12:13:34;31.30;99.90
26479;DHT22;14163;-26.142;27.992;2024-02-04T12:16:06;31.30;99.90
26479;DHT22;14163;-26.142;27.992;2024-02-04T12:18:37;31.10;99.90
26479;DHT22;14163;-26.142;27.992;2024-02-04T12:21:16;30.90;99.90
26479;DHT22;14163;-26.142;27.992;2024-02-04T12:23:46;30.60;99.90
26479;DHT22;14163;-26.142;27.992;2024-02-04T12:26:16;30.50;99.90
26479;DHT22;14163;-26.142;27.992;2024-02-04T12:28:45;30.30;99.90
26479;DHT22;14163;-26.142;27.992;2024-02-04T12:31:17;30.20;99.90
26479;DHT22;14163;-26.142;27.992;2024-02-04T12:33:56;30.00;99.90
26479;DHT22;14163;-26.142;27.992;2024-02-04T12:36:27;29.70;99.90
26479;DHT22;14163;-26.142;27.992;2024-02-04T12:38:59;29.30;99.90
26479;DHT22;14163;-26.142;27.992;2024-02-04T12:41:29;29.00;99.90
26479;DHT22;14163;-26.142;27.992;2024-02-04T12:43:58;28.80;99.90
26479;DHT22;14163;-26.142;27.992;2024-02-04T12:46:29;28.60;99.90
26479;DHT22;14163;-26.142;27.992;2024-02-04T12:48:59;28.50;99.90
26479;DHT22;14163;-26.142;27.992;2024-02-04T12:51:30;28.60;99.90
26479;DHT22;14163;-26.142;27.992;2024-02-04T12:54:06;28.50;99.90
26479;DHT22;14163;-26.142;27.992;2024-02-04T12:56:43;28.50;99.90
26479;DHT22;14163;-26.142;27.992;2024-02-04T12:59:23;28.90;99.90
26479;DHT22;14163;-26.142;27.992;2024-02-04T13:01:54;29.80;99.90
26479;DHT22;14163;-26.142;27.992;2024-02-04T13:04:24;30.60;99.90
26479;DHT22;14163;-26.142;27.992;2024-02-04T13:06:53;30.80;99.90
26479;DHT22;14163;-26.142;27.992;2024-02-04T13:09:24;30.80;99.90
26479;DHT22;14163;-26.142;27.992;2024-02-04T13:12:02;30.40;99.90
26479;DHT22;14163;-26.142;27.992;2024-02-04T13:14:31;30.00;99.90
26479;DHT22;14163;-26.142;27.992;2024-02-04T13:17:00;29.60;99.90
26479;DHT22;14163;-26.142;27.992;2024-02-04T13:19:33;29.40;99.90
26479;DHT22;14163;-26.142;27.992;2024-02-04T13:22:03;29.10;99.90
26479;DHT22;14163;-26.142;27.992;2024-02-04T13:24:34;28.80;99.90
26479;DHT22;14163;-26.142;27.992;2024-02-04T13:27:04;28.60;99.90
26479;DHT22;14163;-26.142;27.992;2024-02-04T13:29:33;28.40;99.90
26479;DHT22;14163;-26.142;27.992;2024-02-04T13:32:03;28.40;99.90
26479;DHT22;14163;-26.142;27.992;2024-02-04T13:34:32;28.40;99.90
26479;DHT22;14163;-26.142;27.992;2024-02-04T13:37:01;28.20;99.90
26479;DHT22;14163;-26.142;27.992;2024-02-04T13:39:30;28.10;99.90
26479;DHT22;14163;-26.142;27.992;2024-02-04T13:42:01;27.90;99.90
26479;DHT22;14163;-26.142;27.992;2024-02-04T13:44:30;27.80;99.90
26479;DHT22;14163;-26.142;27.992;2024-02-04T13:46:59;27.70;99.90
26479;DHT22;14163;-26.142;27.992;2024-02-04T13:49:28;27.70;99.90
26479;DHT22;14163;-26.142;27.992;2024-02-04T13:51:57;27.60;99.90
26479;DHT22;14163;-26.142;27.992;2024-02-04T13:54:26;27.50;99.90
26479;DHT22;14163;-26.142;27.992;2024-02-04T13:56:55;27.40;99.90
26479;DHT22;14163;-26.142;27.992;2024-02-04T13:59:26;27.30;99.90
26479;DHT22;14163;-26.142;27.992;2024-02-04T16:10:46;26.50;99.90
26479;DHT22;14163;-26.142;27.992;2024-02-04T16:13:16;26.50;99.90
26479;DHT22;14163;-26.142;27.992;2024-02-04T16:15:49;27.20;99.90
26479;DHT22;14163;-26.142;27.992;2024-02-04T16:18:19;27.90;99.90
26479;DHT22;14163;-26.142;27.992;2024-02-04T16:20:49;28.50;99.90
26479;DHT22;14163;-26.142;27.992;2024-02-04T16:23:18;29.00;99.90
26479;DHT22;14163;-26.142;27.992;2024-02-04T16:25:49;29.30;99.90
26479;DHT22;14163;-26.142;27.992;2024-02-04T16:28:19;29.50;99.90
26479;DHT22;14163;-26.142;27.992;2024-02-04T16:30:48;29.70;99.90
26479;DHT22;14163;-26.142;27.992;2024-02-04T16:33:17;30.00;99.90
26479;DHT22;14163;-26.142;27.992;2024-02-04T16:35:46;30.10;99.90
26479;DHT22;14163;-26.142;27.992;2024-02-04T16:38:15;30.30;99.90
26479;DHT22;14163;-26.142;27.992;2024-02-04T16:40:45;30.30;99.90
26479;DHT22;14163;-26.142;27.992;2024-02-04T16:43:16;30.30;99.90
26479;DHT22;14163;-26.142;27.992;2024-02-04T16:45:45;30.30;99.90
26479;DHT22;14163;-26.142;27.992;2024-02-04T16:48:15;30.30;99.90
26479;DHT22;14163;-26.142;27.992;2024-02-04T16:50:44;30.30;99.90
26479;DHT22;14163;-26.142;27.992;2024-02-04T16:53:14;30.40;99.90
26479;DHT22;14163;-26.142;27.992;2024-02-04T16:55:46;30.40;99.90
26479;DHT22;14163;-26.142;27.992;2024-02-04T16:58:17;30.30;99.90
26479;DHT22;14163;-26.142;27.992;2024-02-04T17:00:46;30.20;99.90
26479;DHT22;14163;-26.142;27.992;2024-02-04T17:03:16;30.10;99.90
26479;DHT22;14163;-26.142;27.992;2024-02-04T17:05:46;30.10;99.90
26479;DHT22;14163;-26.142;27.992;2024-02-04T17:08:16;30.20;99.90
26479;DHT22;14163;-26.142;27.992;2024-02-04T17:10:46;30.30;99.90
26479;DHT22;14163;-26.142;27.992;2024-02-04T17:13:18;30.30;99.90
26479;DHT22;14163;-26.142;27.992;2024-02-04T17:15:48;30.10;99.90
26479;DHT22;14163;-26.142;27.992;2024-02-04T17:18:26;30.10;99.90
26479;DHT22;14163;-26.142;27.992;2024-02-04T17:20:58;30.10;99.90
26479;DHT22;14163;-26.142;27.992;2024-02-04T17:23:30;30.20;99.90
26479;DHT22;14163;-26.142;27.992;2024-02-04T17:26:01;29.80;99.90
26479;DHT22;14163;-26.142;27.992;2024-02-04T17:28:34;29.70;99.90
26479;DHT22;14163;-26.142;27.992;2024-02-04T17:31:04;29.60;99.90
26479;DHT22;14163;-26.142;27.992;2024-02-04T17:33:34;29.60;99.90
26479;DHT22;14163;-26.142;27.992;2024-02-04T17:36:03;29.50;99.90
26479;DHT22;14163;-26.142;27.992;2024-02-04T17:38:33;29.50;99.90
26479;DHT22;14163;-26.142;27.992;2024-02-04T17:41:02;29.40;99.90
26479;DHT22;14163;-26.142;27.992;2024-02-04T17:43:36;29.40;99.90